Notice: Undefined index: station in /home3/dimtiris/public_html/webApp/metar/index.php on line 4

Metar

Weather conditions for all airports of the world. Just type the ICAO code of an airport.

LGAV 192320Z VRB02KT CAVOK 18/12 Q1022 NOSIG

STATION LGAV
OBSERVED Fri Sep 19, 17:20 MDT
NOW Fri Sep 19, 17:53 MDT
AGE 33 min ago
WIND varies at 2 mph
VISIBILITY greater than 7 miles
CONDITIONS
CLOUDS clear skies
TEMP 64°F (18°C)
DEWPT 54°F (12°C)
HUMIDITY 68%
BAROMETER 1022 hPa (30.18 in Hg)

Get weather info from other station:

Some ICAO codes to try: